sensor_id;sensor_type;location;lat;lon;timestamp;pressure;altitude;pressure_sealevel;temperature;humidity
58662;BME280;44432;49.786;22.760;2024-03-23T00:51:59;98839.69;;;8.63;80.01
58662;BME280;44432;49.786;22.760;2024-03-23T00:54:48;98840.54;;;8.63;80.12
58662;BME280;44432;49.786;22.760;2024-03-23T00:57:17;98840.18;;;8.62;80.08
58662;BME280;44432;49.786;22.760;2024-03-23T00:59:46;98835.69;;;8.61;80.22
58662;BME280;44432;49.786;22.760;2024-03-23T01:02:15;98835.64;;;8.62;80.15
58662;BME280;44432;49.786;22.760;2024-03-23T01:04:43;98831.52;;;8.61;80.21
58662;BME280;44432;49.786;22.760;2024-03-23T01:07:12;98829.02;;;8.60;80.32
58662;BME280;44432;49.786;22.760;2024-03-23T01:09:41;98821.94;;;8.59;80.26
58662;BME280;44432;49.786;22.760;2024-03-23T01:12:10;98823.77;;;8.58;80.35
58662;BME280;44432;49.786;22.760;2024-03-23T01:14:39;98819.40;;;8.55;80.44
58662;BME280;44432;49.786;22.760;2024-03-23T01:17:07;98816.27;;;8.52;80.33
58662;BME280;44432;49.786;22.760;2024-03-23T01:19:36;98815.63;;;8.49;80.51
58662;BME280;44432;49.786;22.760;2024-03-23T01:22:06;98817.58;;;8.47;80.67
58662;BME280;44432;49.786;22.760;2024-03-23T01:24:35;98811.71;;;8.47;80.76
58662;BME280;44432;49.786;22.760;2024-03-23T01:27:04;98807.75;;;8.46;80.99
58662;BME280;44432;49.786;22.760;2024-03-23T01:29:33;98801.77;;;8.47;80.92
58662;BME280;44432;49.786;22.760;2024-03-23T01:32:02;98801.39;;;8.45;80.94
58662;BME280;44432;49.786;22.760;2024-03-23T01:34:31;98802.52;;;8.42;80.97
58662;BME280;44432;49.786;22.760;2024-03-23T01:37:00;98799.15;;;8.41;81.01
58662;BME280;44432;49.786;22.760;2024-03-23T01:39:29;98795.85;;;8.40;81.08
58662;BME280;44432;49.786;22.760;2024-03-23T01:41:58;98796.25;;;8.39;81.25
58662;BME280;44432;49.786;22.760;2024-03-23T01:44:26;98795.27;;;8.40;81.34
58662;BME280;44432;49.786;22.760;2024-03-23T01:46:55;98795.92;;;8.41;81.38
58662;BME280;44432;49.786;22.760;2024-03-23T01:49:24;98792.65;;;8.40;81.31
58662;BME280;44432;49.786;22.760;2024-03-23T01:51:53;98793.05;;;8.41;81.16
58662;BME280;44432;49.786;22.760;2024-03-23T01:54:22;98792.93;;;8.39;81.43
58662;BME280;44432;49.786;22.760;2024-03-23T01:56:51;98797.60;;;8.36;81.18
58662;BME280;44432;49.786;22.760;2024-03-23T01:59:20;98793.13;;;8.32;81.26
58662;BME280;44432;49.786;22.760;2024-03-23T02:01:49;98790.20;;;8.28;81.30
58662;BME280;44432;49.786;22.760;2024-03-23T02:04:18;98785.39;;;8.26;81.49
58662;BME280;44432;49.786;22.760;2024-03-23T02:06:47;98779.98;;;8.25;81.66
58662;BME280;44432;49.786;22.760;2024-03-23T02:09:16;98776.08;;;8.27;81.79
58662;BME280;44432;49.786;22.760;2024-03-23T02:11:44;98777.29;;;8.29;81.72
58662;BME280;44432;49.786;22.760;2024-03-23T02:14:13;98777.63;;;8.27;81.49
58662;BME280;44432;49.786;22.760;2024-03-23T02:16:42;98774.67;;;8.27;81.49
58662;BME280;44432;49.786;22.760;2024-03-23T02:19:11;98767.02;;;8.27;81.61
58662;BME280;44432;49.786;22.760;2024-03-23T02:21:40;98761.48;;;8.26;81.72
58662;BME280;44432;49.786;22.760;2024-03-23T02:24:09;98755.93;;;8.27;81.59
58662;BME280;44432;49.786;22.760;2024-03-23T02:26:38;98753.28;;;8.29;81.82
58662;BME280;44432;49.786;22.760;2024-03-23T02:29:06;98752.65;;;8.28;81.39
58662;BME280;44432;49.786;22.760;2024-03-23T02:31:36;98743.41;;;8.23;81.61
58662;BME280;44432;49.786;22.760;2024-03-23T02:34:05;98737.83;;;8.23;81.31
58662;BME280;44432;49.786;22.760;2024-03-23T02:36:34;98740.75;;;8.21;81.20
58662;BME280;44432;49.786;22.760;2024-03-23T02:39:03;98744.45;;;8.18;81.52
58662;BME280;44432;49.786;22.760;2024-03-23T02:41:32;98747.77;;;8.17;81.53
58662;BME280;44432;49.786;22.760;2024-03-23T02:44:01;98749.27;;;8.16;81.57
58662;BME280;44432;49.786;22.760;2024-03-23T02:46:30;98750.32;;;8.16;81.47
58662;BME280;44432;49.786;22.760;2024-03-23T02:48:58;98745.02;;;8.18;81.63
58662;BME280;44432;49.786;22.760;2024-03-23T02:51:27;98738.28;;;8.21;81.84
58662;BME280;44432;49.786;22.760;2024-03-23T02:53:56;98734.31;;;8.24;81.78
58662;BME280;44432;49.786;22.760;2024-03-23T02:56:25;98728.07;;;8.24;81.58
58662;BME280;44432;49.786;22.760;2024-03-23T02:58:54;98723.70;;;8.24;81.58
58662;BME280;44432;49.786;22.760;2024-03-23T03:01:22;98723.61;;;8.26;81.55
58662;BME280;44432;49.786;22.760;2024-03-23T03:03:51;98720.90;;;8.25;81.19
58662;BME280;44432;49.786;22.760;2024-03-23T03:06:24;98717.33;;;8.26;81.14
58662;BME280;44432;49.786;22.760;2024-03-23T03:08:52;98717.38;;;8.27;81.48
58662;BME280;44432;49.786;22.760;2024-03-23T03:11:22;98712.02;;;8.29;81.34
58662;BME280;44432;49.786;22.760;2024-03-23T03:13:51;98714.69;;;8.30;81.37
58662;BME280;44432;49.786;22.760;2024-03-23T03:16:19;98707.16;;;8.31;81.10
58662;BME280;44432;49.786;22.760;2024-03-23T03:18:48;98707.05;;;8.29;80.94
58662;BME280;44432;49.786;22.760;2024-03-23T03:21:17;98701.88;;;8.27;80.98
58662;BME280;44432;49.786;22.760;2024-03-23T03:23:46;98698.00;;;8.26;80.70
58662;BME280;44432;49.786;22.760;2024-03-23T03:26:17;98696.95;;;8.25;80.76
58662;BME280;44432;49.786;22.760;2024-03-23T03:28:46;98703.31;;;8.24;80.67
58662;BME280;44432;49.786;22.760;2024-03-23T03:31:16;98705.45;;;8.24;80.46
58662;BME280;44432;49.786;22.760;2024-03-23T03:33:45;98704.30;;;8.23;80.12
58662;BME280;44432;49.786;22.760;2024-03-23T03:36:14;98702.52;;;8.21;80.34
58662;BME280;44432;49.786;22.760;2024-03-23T03:38:43;98697.02;;;8.22;80.45
58662;BME280;44432;49.786;22.760;2024-03-23T03:41:12;98693.81;;;8.23;80.65
58662;BME280;44432;49.786;22.760;2024-03-23T03:43:41;98703.31;;;8.24;80.61
58662;BME280;44432;49.786;22.760;2024-03-23T03:46:09;98700.30;;;8.26;80.53
58662;BME280;44432;49.786;22.760;2024-03-23T03:48:38;98704.95;;;8.28;80.68
58662;BME280;44432;49.786;22.760;2024-03-23T03:51:07;98703.77;;;8.30;80.58
58662;BME280;44432;49.786;22.760;2024-03-23T03:53:36;98699.11;;;8.31;80.73
58662;BME280;44432;49.786;22.760;2024-03-23T03:56:05;98691.54;;;8.31;80.58
58662;BME280;44432;49.786;22.760;2024-03-23T03:58:34;98695.17;;;8.31;80.63
58662;BME280;44432;49.786;22.760;2024-03-23T04:01:03;98692.21;;;8.32;80.49
58662;BME280;44432;49.786;22.760;2024-03-23T04:03:32;98694.46;;;8.32;80.42
58662;BME280;44432;49.786;22.760;2024-03-23T04:06:00;98689.73;;;8.33;80.21
58662;BME280;44432;49.786;22.760;2024-03-23T04:08:30;98691.73;;;8.31;80.32
58662;BME280;44432;49.786;22.760;2024-03-23T04:10:59;98683.88;;;8.28;80.21
58662;BME280;44432;49.786;22.760;2024-03-23T04:13:28;98678.30;;;8.25;80.18
58662;BME280;44432;49.786;22.760;2024-03-23T04:15:57;98680.35;;;8.22;79.90
58662;BME280;44432;49.786;22.760;2024-03-23T04:18:26;98679.71;;;8.19;79.95
58662;BME280;44432;49.786;22.760;2024-03-23T04:20:55;98675.68;;;8.16;79.95
58662;BME280;44432;49.786;22.760;2024-03-23T04:23:23;98671.89;;;8.16;80.11
58662;BME280;44432;49.786;22.760;2024-03-23T04:25:52;98673.16;;;8.16;80.10
58662;BME280;44432;49.786;22.760;2024-03-23T04:28:22;98678.02;;;8.17;80.28
58662;BME280;44432;49.786;22.760;2024-03-23T04:30:51;98676.77;;;8.17;80.13
58662;BME280;44432;49.786;22.760;2024-03-23T04:33:19;98671.09;;;8.20;80.14
58662;BME280;44432;49.786;22.760;2024-03-23T04:35:49;98671.39;;;8.24;80.20
58662;BME280;44432;49.786;22.760;2024-03-23T04:38:18;98671.27;;;8.26;80.25
58662;BME280;44432;49.786;22.760;2024-03-23T04:40:54;98668.65;;;8.29;80.12
58662;BME280;44432;49.786;22.760;2024-03-23T04:43:23;98661.35;;;8.31;80.03
58662;BME280;44432;49.786;22.760;2024-03-23T04:45:52;98664.20;;;8.35;80.08
58662;BME280;44432;49.786;22.760;2024-03-23T04:48:21;98662.46;;;8.36;80.17
58662;BME280;44432;49.786;22.760;2024-03-23T04:50:54;98659.77;;;8.37;80.11
58662;BME280;44432;49.786;22.760;2024-03-23T04:53:23;98658.10;;;8.39;80.09
58662;BME280;44432;49.786;22.760;2024-03-23T04:55:55;98655.39;;;8.40;80.05
58662;BME280;44432;49.786;22.760;2024-03-23T04:58:25;98654.58;;;8.41;80.19
58662;BME280;44432;49.786;22.760;2024-03-23T05:00:54;98653.08;;;8.40;79.94
58662;BME280;44432;49.786;22.760;2024-03-23T05:03:23;98659.88;;;8.39;79.82
58662;BME280;44432;49.786;22.760;2024-03-23T05:05:52;98660.09;;;8.37;79.86
58662;BME280;44432;49.786;22.760;2024-03-23T05:08:21;98657.34;;;8.39;79.86
58662;BME280;44432;49.786;22.760;2024-03-23T05:10:50;98654.58;;;8.39;79.90
58662;BME280;44432;49.786;22.760;2024-03-23T05:13:19;98652.66;;;8.42;80.00
58662;BME280;44432;49.786;22.760;2024-03-23T05:15:51;98653.94;;;8.45;80.30
58662;BME280;44432;49.786;22.760;2024-03-23T05:18:20;98652.85;;;8.49;80.35
58662;BME280;44432;49.786;22.760;2024-03-23T05:20:49;98656.27;;;8.52;80.24
58662;BME280;44432;49.786;22.760;2024-03-23T05:23:23;98656.73;;;8.55;80.34
58662;BME280;44432;49.786;22.760;2024-03-23T05:25:52;98658.59;;;8.60;80.19
58662;BME280;44432;49.786;22.760;2024-03-23T05:28:22;98653.83;;;8.64;80.04
58662;BME280;44432;49.786;22.760;2024-03-23T05:30:51;98650.43;;;8.69;80.15
58662;BME280;44432;49.786;22.760;2024-03-23T05:33:20;98640.13;;;8.75;80.03
58662;BME280;44432;49.786;22.760;2024-03-23T05:35:57;98633.08;;;8.81;80.09
58662;BME280;44432;49.786;22.760;2024-03-23T05:38:26;98633.30;;;8.87;79.81
58662;BME280;44432;49.786;22.760;2024-03-23T05:40:55;98636.23;;;8.94;79.76
58662;BME280;44432;49.786;22.760;2024-03-23T05:43:24;98636.36;;;8.97;79.45
58662;BME280;44432;49.786;22.760;2024-03-23T05:45:57;98633.98;;;9.01;79.32
58662;BME280;44432;49.786;22.760;2024-03-23T05:48:26;98632.72;;;9.04;79.18
58662;BME280;44432;49.786;22.760;2024-03-23T05:50:55;98629.80;;;9.09;79.15
58662;BME280;44432;49.786;22.760;2024-03-23T05:53:24;98632.67;;;9.13;79.01
58662;BME280;44432;49.786;22.760;2024-03-23T05:55:59;98629.75;;;9.18;78.89
58662;BME280;44432;49.786;22.760;2024-03-23T05:58:29;98630.46;;;9.23;78.73
58662;BME280;44432;49.786;22.760;2024-03-23T06:00:59;98630.22;;;9.27;78.67
58662;BME280;44432;49.786;22.760;2024-03-23T06:03:29;98626.38;;;9.30;78.52
58662;BME280;44432;49.786;22.760;2024-03-23T06:05:58;98624.13;;;9.35;78.39
58662;BME280;44432;49.786;22.760;2024-03-23T06:08:27;98627.29;;;9.43;78.46
58662;BME280;44432;49.786;22.760;2024-03-23T06:10:55;98624.26;;;9.50;78.30
58662;BME280;44432;49.786;22.760;2024-03-23T06:13:24;98622.80;;;9.56;78.24
58662;BME280;44432;49.786;22.760;2024-03-23T06:15:57;98618.02;;;9.63;78.35
58662;BME280;44432;49.786;22.760;2024-03-23T06:18:27;98614.78;;;9.68;78.16
58662;BME280;44432;49.786;22.760;2024-03-23T06:20:56;98614.23;;;9.73;78.02
58662;BME280;44432;49.786;22.760;2024-03-23T06:23:25;98610.29;;;9.77;77.78
58662;BME280;44432;49.786;22.760;2024-03-23T06:25:54;98606.14;;;9.81;77.69
58662;BME280;44432;49.786;22.760;2024-03-23T06:28:22;98605.58;;;9.84;77.39
58662;BME280;44432;49.786;22.760;2024-03-23T06:30:51;98604.27;;;9.84;77.01
58662;BME280;44432;49.786;22.760;2024-03-23T06:33:20;98603.55;;;9.86;77.06
58662;BME280;44432;49.786;22.760;2024-03-23T06:35:51;98601.14;;;9.88;76.89
58662;BME280;44432;49.786;22.760;2024-03-23T06:38:20;98597.31;;;9.91;76.93
58662;BME280;44432;49.786;22.760;2024-03-23T06:40:48;98594.95;;;9.95;76.73
58662;BME280;44432;49.786;22.760;2024-03-23T06:43:20;98591.93;;;10.01;76.83
58662;BME280;44432;49.786;22.760;2024-03-23T06:45:53;98595.16;;;10.10;76.58
58662;BME280;44432;49.786;22.760;2024-03-23T06:48:22;98592.38;;;10.19;76.60
58662;BME280;44432;49.786;22.760;2024-03-23T06:50:54;98593.47;;;10.28;76.55
58662;BME280;44432;49.786;22.760;2024-03-23T06:53:23;98589.52;;;10.37;76.11
58662;BME280;44432;49.786;22.760;2024-03-23T06:55:52;98583.77;;;10.47;75.87
58662;BME280;44432;49.786;22.760;2024-03-23T06:58:22;98581.80;;;10.60;75.70
58662;BME280;44432;49.786;22.760;2024-03-23T07:00:50;98576.29;;;10.73;75.13
58662;BME280;44432;49.786;22.760;2024-03-23T07:03:20;98572.66;;;10.88;74.65
58662;BME280;44432;49.786;22.760;2024-03-23T07:05:49;98579.43;;;11.03;74.34
58662;BME280;44432;49.786;22.760;2024-03-23T07:08:18;98584.00;;;11.20;74.02
58662;BME280;44432;49.786;22.760;2024-03-23T07:10:49;98589.86;;;11.35;73.98
58662;BME280;44432;49.786;22.760;2024-03-23T07:13:18;98592.14;;;11.48;72.91
58662;BME280;44432;49.786;22.760;2024-03-23T07:15:52;98587.51;;;11.60;72.52
58662;BME280;44432;49.786;22.760;2024-03-23T07:18:22;98584.95;;;11.70;72.00
58662;BME280;44432;49.786;22.760;2024-03-23T07:20:54;98575.17;;;11.80;71.39
58662;BME280;44432;49.786;22.760;2024-03-23T07:23:24;98570.24;;;11.92;71.01
58662;BME280;44432;49.786;22.760;2024-03-23T07:25:58;98574.42;;;12.01;70.53
58662;BME280;44432;49.786;22.760;2024-03-23T07:28:28;98573.52;;;12.10;70.40
58662;BME280;44432;49.786;22.760;2024-03-23T07:31:06;98574.82;;;12.18;70.01
58662;BME280;44432;49.786;22.760;2024-03-23T07:33:36;98576.71;;;12.24;69.60
58662;BME280;44432;49.786;22.760;2024-03-23T07:36:06;98578.67;;;12.27;68.95
58662;BME280;44432;49.786;22.760;2024-03-23T07:38:35;98575.55;;;12.26;68.20
58662;BME280;44432;49.786;22.760;2024-03-23T07:41:04;98572.28;;;12.25;67.65
58662;BME280;44432;49.786;22.760;2024-03-23T07:43:33;98562.31;;;12.24;67.74
58662;BME280;44432;49.786;22.760;2024-03-23T07:46:02;98531.70;;;12.26;67.72
58662;BME280;44432;49.786;22.760;2024-03-23T07:48:32;98506.29;;;12.29;67.81
58662;BME280;44432;49.786;22.760;2024-03-23T07:51:02;98550.41;;;12.30;67.28
58662;BME280;44432;49.786;22.760;2024-03-23T07:53:32;98545.48;;;12.30;67.46
58662;BME280;44432;49.786;22.760;2024-03-23T07:56:01;98546.33;;;12.30;67.55
58662;BME280;44432;49.786;22.760;2024-03-23T07:58:30;98539.32;;;12.32;67.63
58662;BME280;44432;49.786;22.760;2024-03-23T08:01:04;98530.52;;;12.34;67.39
58662;BME280;44432;49.786;22.760;2024-03-23T08:03:35;98530.03;;;12.37;67.29
58662;BME280;44432;49.786;22.760;2024-03-23T08:06:08;98535.02;;;12.41;67.24
58662;BME280;44432;49.786;22.760;2024-03-23T08:08:37;98533.42;;;12.45;67.05
58662;BME280;44432;49.786;22.760;2024-03-23T08:11:06;98526.67;;;12.48;66.54
58662;BME280;44432;49.786;22.760;2024-03-23T08:13:36;98524.70;;;12.52;66.68
58662;BME280;44432;49.786;22.760;2024-03-23T08:16:05;98523.83;;;12.57;66.36
58662;BME280;44432;49.786;22.760;2024-03-23T08:18:33;98521.90;;;12.64;66.29
58662;BME280;44432;49.786;22.760;2024-03-23T08:21:03;98506.59;;;12.67;65.19
58662;BME280;44432;49.786;22.760;2024-03-23T08:23:32;98505.10;;;12.74;65.59
58662;BME280;44432;49.786;22.760;2024-03-23T08:26:04;98507.48;;;12.82;65.38
58662;BME280;44432;49.786;22.760;2024-03-23T08:28:34;98511.58;;;12.91;64.94
58662;BME280;44432;49.786;22.760;2024-03-23T08:31:03;98509.11;;;12.98;64.51
58662;BME280;44432;49.786;22.760;2024-03-23T08:33:33;98500.55;;;13.04;64.18
58662;BME280;44432;49.786;22.760;2024-03-23T08:36:03;98501.85;;;13.15;63.63
58662;BME280;44432;49.786;22.760;2024-03-23T08:38:32;98496.91;;;13.22;62.97
58662;BME280;44432;49.786;22.760;2024-03-23T08:41:02;98497.57;;;13.28;62.80
58662;BME280;44432;49.786;22.760;2024-03-23T08:43:32;98487.23;;;13.39;62.45
58662;BME280;44432;49.786;22.760;2024-03-23T08:46:04;98487.56;;;13.52;62.23
58662;BME280;44432;49.786;22.760;2024-03-23T08:48:34;98484.92;;;13.65;62.07
58662;BME280;44432;49.786;22.760;2024-03-23T08:51:04;98485.58;;;13.80;61.40
58662;BME280;44432;49.786;22.760;2024-03-23T08:53:34;98483.77;;;13.93;60.75
58662;BME280;44432;49.786;22.760;2024-03-23T08:56:04;98486.80;;;14.14;60.75
58662;BME280;44432;49.786;22.760;2024-03-23T08:58:34;98483.02;;;14.33;60.34
58662;BME280;44432;49.786;22.760;2024-03-23T09:01:06;98480.97;;;14.50;58.95
58662;BME280;44432;49.786;22.760;2024-03-23T09:03:35;98479.51;;;14.60;58.49
58662;BME280;44432;49.786;22.760;2024-03-23T09:06:07;98477.80;;;14.69;58.18
58662;BME280;44432;49.786;22.760;2024-03-23T09:08:36;98476.04;;;14.81;58.01
58662;BME280;44432;49.786;22.760;2024-03-23T09:11:05;98470.04;;;14.92;57.36
58662;BME280;44432;49.786;22.760;2024-03-23T09:13:35;98472.77;;;14.97;56.44
58662;BME280;44432;49.786;22.760;2024-03-23T09:16:05;98469.34;;;15.03;56.70
58662;BME280;44432;49.786;22.760;2024-03-23T09:18:35;98469.20;;;15.16;56.81
58662;BME280;44432;49.786;22.760;2024-03-23T09:21:04;98468.50;;;15.30;56.64
58662;BME280;44432;49.786;22.760;2024-03-23T09:23:33;98469.16;;;15.44;56.19
58662;BME280;44432;49.786;22.760;2024-03-23T09:26:04;98473.39;;;15.53;55.47
58662;BME280;44432;49.786;22.760;2024-03-23T09:28:33;98457.08;;;15.58;55.33
58662;BME280;44432;49.786;22.760;2024-03-23T09:31:05;98414.07;;;15.63;55.05
58662;BME280;44432;49.786;22.760;2024-03-23T09:33:34;98402.05;;;15.70;55.27
58662;BME280;44432;49.786;22.760;2024-03-23T09:36:04;98405.19;;;15.76;54.37
58662;BME280;44432;49.786;22.760;2024-03-23T09:38:33;98405.81;;;15.81;54.25
58662;BME280;44432;49.786;22.760;2024-03-23T09:41:06;98401.13;;;15.85;54.05
58662;BME280;44432;49.786;22.760;2024-03-23T09:43:35;98395.75;;;15.88;53.89
58662;BME280;44432;49.786;22.760;2024-03-23T09:46:04;98396.17;;;15.92;53.94
58662;BME280;44432;49.786;22.760;2024-03-23T09:48:33;98390.48;;;15.97;53.96
58662;BME280;44432;49.786;22.760;2024-03-23T09:51:02;98380.45;;;16.03;53.88
58662;BME280;44432;49.786;22.760;2024-03-23T09:53:31;98376.50;;;16.06;53.52
58662;BME280;44432;49.786;22.760;2024-03-23T09:56:01;98377.56;;;16.09;53.46
58662;BME280;44432;49.786;22.760;2024-03-23T09:58:29;98381.43;;;16.15;53.45
58662;BME280;44432;49.786;22.760;2024-03-23T10:00:59;98380.46;;;16.21;53.13
58662;BME280;44432;49.786;22.760;2024-03-23T10:03:28;98377.09;;;16.27;53.07
58662;BME280;44432;49.786;22.760;2024-03-23T10:06:03;98372.28;;;16.31;52.74
58662;BME280;44432;49.786;22.760;2024-03-23T10:08:32;98365.89;;;16.33;52.45
58662;BME280;44432;49.786;22.760;2024-03-23T10:11:12;98360.38;;;16.39;52.50
58662;BME280;44432;49.786;22.760;2024-03-23T10:13:42;98355.15;;;16.52;52.54
58662;BME280;44432;49.786;22.760;2024-03-23T10:16:11;98351.52;;;16.64;52.13
58662;BME280;44432;49.786;22.760;2024-03-23T10:18:40;98345.86;;;16.77;52.02
58662;BME280;44432;49.786;22.760;2024-03-23T10:21:09;98340.20;;;16.90;51.79
58662;BME280;44432;49.786;22.760;2024-03-23T10:23:39;98338.60;;;17.04;51.65
58662;BME280;44432;49.786;22.760;2024-03-23T10:26:16;98333.95;;;17.13;50.48
58662;BME280;44432;49.786;22.760;2024-03-23T10:28:55;98326.34;;;17.25;50.92
58662;BME280;44432;49.786;22.760;2024-03-23T10:31:27;98317.75;;;17.46;50.62
58662;BME280;44432;49.786;22.760;2024-03-23T10:33:56;98311.01;;;17.60;50.40
58662;BME280;44432;49.786;22.760;2024-03-23T10:36:26;98300.31;;;17.77;49.97
58662;BME280;44432;49.786;22.760;2024-03-23T10:38:54;98293.70;;;17.97;49.85
58662;BME280;44432;49.786;22.760;2024-03-23T10:41:24;98296.47;;;18.11;48.52
58662;BME280;44432;49.786;22.760;2024-03-23T10:43:54;98298.14;;;18.19;48.29
58662;BME280;44432;49.786;22.760;2024-03-23T10:46:24;98300.34;;;18.28;47.82
58662;BME280;44432;49.786;22.760;2024-03-23T10:48:53;98295.97;;;18.35;47.76
58662;BME280;44432;49.786;22.760;2024-03-23T10:51:22;98297.84;;;18.39;47.13
58662;BME280;44432;49.786;22.760;2024-03-23T10:53:51;98293.55;;;18.40;46.79
58662;BME280;44432;49.786;22.760;2024-03-23T10:56:21;98288.61;;;18.43;46.94
58662;BME280;44432;49.786;22.760;2024-03-23T10:58:51;98290.52;;;18.51;47.13
58662;BME280;44432;49.786;22.760;2024-03-23T11:01:20;98281.92;;;18.59;46.97
58662;BME280;44432;49.786;22.760;2024-03-23T11:03:49;98273.30;;;18.70;46.33
58662;BME280;44432;49.786;22.760;2024-03-23T11:06:34;98272.75;;;18.76;46.36
58662;BME280;44432;49.786;22.760;2024-03-23T11:09:03;98271.45;;;18.83;46.22
58662;BME280;44432;49.786;22.760;2024-03-23T11:11:32;98269.38;;;18.87;45.94
58662;BME280;44432;49.786;22.760;2024-03-23T11:14:02;98258.91;;;18.89;45.67
58662;BME280;44432;49.786;22.760;2024-03-23T11:16:41;98255.15;;;18.90;45.67
58662;BME280;44432;49.786;22.760;2024-03-23T11:21:58;98246.42;;;18.94;45.03
58662;BME280;44432;49.786;22.760;2024-03-23T11:24:27;98247.41;;;18.92;44.55
58662;BME280;44432;49.786;22.760;2024-03-23T11:26:56;98243.13;;;18.89;44.57
58662;BME280;44432;49.786;22.760;2024-03-23T11:29:28;98238.55;;;18.88;44.51
58662;BME280;44432;49.786;22.760;2024-03-23T11:31:57;98236.42;;;18.87;44.36
58662;BME280;44432;49.786;22.760;2024-03-23T11:34:26;98230.77;;;18.86;44.69
58662;BME280;44432;49.786;22.760;2024-03-23T11:37:03;98223.85;;;18.87;44.36
58662;BME280;44432;49.786;22.760;2024-03-23T11:39:32;98214.10;;;18.85;44.89
58662;BME280;44432;49.786;22.760;2024-03-23T11:42:01;98203.05;;;18.89;45.10
58662;BME280;44432;49.786;22.760;2024-03-23T11:44:30;98202.42;;;18.92;44.79
58662;BME280;44432;49.786;22.760;2024-03-23T11:47:08;98193.48;;;18.90;44.53
58662;BME280;44432;49.786;22.760;2024-03-23T11:49:38;98180.14;;;18.91;44.89
58662;BME280;44432;49.786;22.760;2024-03-23T11:52:09;98178.68;;;18.92;44.42
58662;BME280;44432;49.786;22.760;2024-03-23T11:54:37;98169.52;;;18.93;44.55
58662;BME280;44432;49.786;22.760;2024-03-23T11:57:07;98163.44;;;18.86;42.80
58662;BME280;44432;49.786;22.760;2024-03-23T11:59:37;98162.98;;;18.75;43.27
58662;BME280;44432;49.786;22.760;2024-03-23T12:02:07;98158.14;;;18.69;43.45
58662;BME280;44432;49.786;22.760;2024-03-23T12:04:36;98149.76;;;18.68;43.78
58662;BME280;44432;49.786;22.760;2024-03-23T12:07:12;98145.79;;;18.65;43.39
58662;BME280;44432;49.786;22.760;2024-03-23T12:09:41;98140.98;;;18.61;43.45
58662;BME280;44432;49.786;22.760;2024-03-23T12:12:11;98142.67;;;18.63;43.48
58662;BME280;44432;49.786;22.760;2024-03-23T12:14:39;98142.36;;;18.63;43.28
58662;BME280;44432;49.786;22.760;2024-03-23T12:17:10;98146.19;;;18.67;43.69
58662;BME280;44432;49.786;22.760;2024-03-23T12:19:39;98147.88;;;18.71;43.78
58662;BME280;44432;49.786;22.760;2024-03-23T12:22:09;98143.79;;;18.74;43.67
58662;BME280;44432;49.786;22.760;2024-03-23T12:24:37;98144.66;;;18.76;43.28
58662;BME280;44432;49.786;22.760;2024-03-23T12:27:12;98138.36;;;18.75;42.93
58662;BME280;44432;49.786;22.760;2024-03-23T12:29:45;98133.23;;;18.73;42.44
58662;BME280;44432;49.786;22.760;2024-03-23T12:32:14;98124.02;;;18.72;42.94
58662;BME280;44432;49.786;22.760;2024-03-23T12:34:43;98125.59;;;18.73;42.78
58662;BME280;44432;49.786;22.760;2024-03-23T12:37:12;98118.07;;;18.70;42.49
58662;BME280;44432;49.786;22.760;2024-03-23T12:39:42;98111.77;;;18.62;42.48
58662;BME280;44432;49.786;22.760;2024-03-23T12:42:11;98110.13;;;18.56;42.91
58662;BME280;44432;49.786;22.760;2024-03-23T12:55:07;98085.50;;;18.19;42.89
58662;BME280;44432;49.786;22.760;2024-03-23T12:57:36;98086.42;;;18.11;42.78
58662;BME280;44432;49.786;22.760;2024-03-23T13:00:06;98089.86;;;18.02;42.72
58662;BME280;44432;49.786;22.760;2024-03-23T13:02:37;98082.87;;;17.94;43.17
58662;BME280;44432;49.786;22.760;2024-03-23T13:05:08;98080.94;;;17.92;43.42
58662;BME280;44432;49.786;22.760;2024-03-23T13:07:37;98075.95;;;17.93;43.70
58662;BME280;44432;49.786;22.760;2024-03-23T13:10:06;98067.21;;;17.94;43.74
58662;BME280;44432;49.786;22.760;2024-03-23T13:12:36;98055.69;;;17.97;43.97
58662;BME280;44432;49.786;22.760;2024-03-23T13:15:05;98046.93;;;18.02;44.05
58662;BME280;44432;49.786;22.760;2024-03-23T13:17:34;98035.91;;;18.02;43.72
58662;BME280;44432;49.786;22.760;2024-03-23T13:20:03;98024.96;;;17.99;43.64
58662;BME280;44432;49.786;22.760;2024-03-23T13:22:32;98018.95;;;17.94;42.99
58662;BME280;44432;49.786;22.760;2024-03-23T13:25:01;98013.26;;;17.86;43.11
58662;BME280;44432;49.786;22.760;2024-03-23T13:27:30;98004.13;;;17.78;43.44
58662;BME280;44432;49.786;22.760;2024-03-23T13:29:59;98005.29;;;17.72;43.34
58662;BME280;44432;49.786;22.760;2024-03-23T13:32:28;98003.11;;;17.66;43.67
58662;BME280;44432;49.786;22.760;2024-03-23T13:34:57;98007.50;;;17.63;43.45
58662;BME280;44432;49.786;22.760;2024-03-23T13:37:25;98004.98;;;17.61;43.37
58662;BME280;44432;49.786;22.760;2024-03-23T13:39:54;97997.37;;;17.59;43.40
58662;BME280;44432;49.786;22.760;2024-03-23T13:42:23;97997.86;;;17.58;43.35
58662;BME280;44432;49.786;22.760;2024-03-23T13:44:53;97998.70;;;17.55;43.17
58662;BME280;44432;49.786;22.760;2024-03-23T13:47:22;97985.77;;;17.48;43.05
58662;BME280;44432;49.786;22.760;2024-03-23T13:49:51;97983.38;;;17.48;43.33
58662;BME280;44432;49.786;22.760;2024-03-23T13:52:20;97985.77;;;17.45;43.48
58662;BME280;44432;49.786;22.760;2024-03-23T13:54:50;97991.23;;;17.43;43.35
58662;BME280;44432;49.786;22.760;2024-03-23T13:57:19;97985.85;;;17.39;43.12
58662;BME280;44432;49.786;22.760;2024-03-23T13:59:48;97970.52;;;17.32;43.50
58662;BME280;44432;49.786;22.760;2024-03-23T14:02:17;97961.71;;;17.29;43.63
58662;BME280;44432;49.786;22.760;2024-03-23T14:04:46;97961.55;;;17.25;43.50
58662;BME280;44432;49.786;22.760;2024-03-23T14:07:15;97958.73;;;17.21;43.89
58662;BME280;44432;49.786;22.760;2024-03-23T14:09:45;97954.17;;;17.19;43.99
58662;BME280;44432;49.786;22.760;2024-03-23T14:12:14;97952.30;;;17.19;44.36